Time;durP1;ratioP1;P1;durP2;ratioP2;P2;SDS_P1;SDS_P2;PMS_P1;PMS_P2;Temp;Humidity;BMP_temperature;BMP_pressure;BME280_temperature;BME280_humidity;BME280_pressure;Samples;Min_cycle;Max_cycle;Signal;HPM_P1;HPM_P2
2022/01/26 00:07:25;;;;;;;5.68;5.18;;;;;;;;;;7331419;19;154253;-15
2022/01/26 00:09:59;;;;;;;5.47;4.97;;;;;;;;;;7333388;19;153676;-15
2022/01/26 00:12:30;;;;;;;5.97;5.40;;;;;;;;;;7330549;19;161848;-14
2022/01/26 00:15:02;;;;;;;5.85;5.32;;;;;;;;;;7331342;19;162439;-15
2022/01/26 00:17:33;;;;;;;6.00;5.40;;;;;;;;;;7331310;19;154268;-15
2022/01/26 00:20:13;;;;;;;5.82;5.32;;;;;;;;;;7333645;19;153711;-13
2022/01/26 00:22:58;;;;;;;5.53;5.03;;;;;;;;;;7330506;19;161810;-14
2022/01/26 00:25:42;;;;;;;5.90;5.20;;;;;;;;;;7331780;19;162378;-14
2022/01/26 00:39:16;;;;;;;5.40;4.85;;;;;;;;;;7324049;19;154097;-15
2022/01/26 00:41:50;;;;;;;5.57;5.00;;;;;;;;;;7331505;19;153558;-15
2022/01/26 00:44:21;;;;;;;5.32;4.82;;;;;;;;;;7331303;19;161846;-14
2022/01/26 00:46:52;;;;;;;5.63;4.97;;;;;;;;;;7330905;19;163109;-14
2022/01/26 00:49:24;;;;;;;5.07;4.68;;;;;;;;;;7330657;19;154692;-14
2022/01/26 00:51:55;;;;;;;5.10;4.70;;;;;;;;;;7331211;19;153689;-15
2022/01/26 00:54:27;;;;;;;5.55;5.05;;;;;;;;;;7328016;19;161941;-15
2022/01/26 00:57:01;;;;;;;5.30;4.80;;;;;;;;;;7327203;19;162590;-15
2022/01/26 00:59:33;;;;;;;4.88;4.15;;;;;;;;;;7330797;19;154020;-16
2022/01/26 01:02:05;;;;;;;4.50;4.10;;;;;;;;;;7325248;19;153651;-13
2022/01/26 08:37:20;;;;;;;27.23;21.65;;;;;;;;;;7370128;19;132541;-15
2022/01/26 08:39:52;;;;;;;24.33;20.45;;;;;;;;;;7367996;19;153667;-16
2022/01/26 08:42:23;;;;;;;25.02;20.33;;;;;;;;;;7366132;19;161848;-16
2022/01/26 08:44:55;;;;;;;28.05;20.52;;;;;;;;;;7363498;19;162506;-15
2022/01/26 08:47:26;;;;;;;25.73;20.30;;;;;;;;;;7364314;19;154044;-15
2022/01/26 08:49:58;;;;;;;26.25;21.05;;;;;;;;;;7364169;19;153530;-15
2022/01/26 08:52:31;;;;;;;25.83;19.55;;;;;;;;;;7363690;19;161966;-15
2022/01/26 08:55:03;;;;;;;24.52;19.75;;;;;;;;;;7363565;19;162440;-16
2022/01/26 08:57:34;;;;;;;23.42;19.38;;;;;;;;;;7366568;19;153700;-14
2022/01/26 09:00:07;;;;;;;24.92;18.20;;;;;;;;;;7363752;19;153734;-15
2022/01/26 09:02:39;;;;;;;21.20;17.85;;;;;;;;;;7363450;19;161959;-15
2022/01/26 09:05:11;;;;;;;22.55;17.92;;;;;;;;;;7362897;19;162638;-15
2022/01/26 09:07:45;;;;;;;21.10;18.30;;;;;;;;;;7363593;19;153949;-15
2022/01/26 09:10:21;;;;;;;21.65;18.13;;;;;;;;;;7363851;19;153711;-14
2022/01/26 09:12:53;;;;;;;20.23;18.00;;;;;;;;;;7365260;19;161903;-16
2022/01/26 09:15:28;;;;;;;20.67;18.08;;;;;;;;;;7362884;19;162253;-15
2022/01/26 09:18:03;;;;;;;20.65;17.58;;;;;;;;;;7363381;19;153986;-16
2022/01/26 09:20:38;;;;;;;23.85;17.77;;;;;;;;;;7363304;19;153645;-14
2022/01/26 09:23:11;;;;;;;20.33;16.98;;;;;;;;;;7362767;19;162064;-16
2022/01/26 09:25:43;;;;;;;22.33;17.67;;;;;;;;;;7361853;19;162414;-16
2022/01/26 09:28:14;;;;;;;24.30;18.45;;;;;;;;;;7366816;19;153930;-16
2022/01/26 09:30:45;;;;;;;20.00;16.42;;;;;;;;;;7363209;19;153852;-16
2022/01/26 09:33:16;;;;;;;29.45;16.98;;;;;;;;;;7362953;19;162010;-15
2022/01/26 09:35:48;;;;;;;19.23;16.38;;;;;;;;;;7361447;19;162607;-16
2022/01/26 09:38:22;;;;;;;18.88;16.02;;;;;;;;;;7331967;19;154025;-15
2022/01/26 09:40:53;;;;;;;19.30;16.45;;;;;;;;;;7333983;19;153812;-15
2022/01/26 09:43:27;;;;;;;18.63;15.87;;;;;;;;;;7336448;19;162169;-15
2022/01/26 09:45:58;;;;;;;18.17;16.25;;;;;;;;;;7332493;19;162562;-16
2022/01/26 09:48:30;;;;;;;18.05;16.20;;;;;;;;;;7333111;19;154149;-15
2022/01/26 09:51:01;;;;;;;20.02;16.17;;;;;;;;;;7333736;19;153659;-15
2022/01/26 09:53:36;;;;;;;18.30;16.23;;;;;;;;;;7333301;19;161793;-15
2022/01/26 09:56:08;;;;;;;19.55;16.38;;;;;;;;;;7333283;19;162422;-16
2022/01/26 09:58:39;;;;;;;19.00;16.52;;;;;;;;;;7333393;19;153912;-15
2022/01/26 10:01:10;;;;;;;18.45;16.17;;;;;;;;;;7333205;19;153693;-16
2022/01/26 10:03:48;;;;;;;18.85;15.95;;;;;;;;;;7332885;19;162038;-15
2022/01/26 10:06:27;;;;;;;20.48;16.20;;;;;;;;;;7334270;19;162360;-15
2022/01/26 10:09:25;;;;;;;18.10;15.75;;;;;;;;;;7243909;19;154110;-14
2022/01/26 10:17:36;;;;;;;18.52;15.95;;;;;;;;;;7332557;19;162599;-17
2022/01/26 10:20:14;;;;;;;17.38;15.23;;;;;;;;;;7296874;19;154438;-15
2022/01/26 10:22:47;;;;;;;16.50;14.73;;;;;;;;;;7332959;19;153601;-16
2022/01/26 10:25:22;;;;;;;18.37;15.90;;;;;;;;;;7332294;19;161955;-16
2022/01/26 10:28:05;;;;;;;16.88;13.80;;;;;;;;;;7333196;19;162256;-16
2022/01/26 10:30:37;;;;;;;16.35;14.40;;;;;;;;;;7332714;19;154105;-14
2022/01/26 10:33:10;;;;;;;16.05;14.02;;;;;;;;;;7332571;19;153564;-17
2022/01/26 10:35:41;;;;;;;;;;;;;;;;;;7331532;19;161990;-15
2022/01/26 10:38:12;;;;;;;16.20;14.50;;;;;;;;;;7331506;19;162752;-15
2022/01/26 10:40:46;;;;;;;18.38;14.05;;;;;;;;;;7331927;19;153652;-15
2022/01/26 10:43:18;;;;;;;17.38;13.95;;;;;;;;;;7335863;19;153615;-14
2022/01/26 10:45:57;;;;;;;16.17;13.25;;;;;;;;;;7331779;19;161800;-14
2022/01/26 10:48:40;;;;;;;15.50;13.80;;;;;;;;;;7329178;19;162790;-15
2022/01/26 10:54:10;;;;;;;15.02;13.43;;;;;;;;;;7330569;19;153529;-15
2022/01/26 10:56:43;;;;;;;16.80;13.73;;;;;;;;;;7332065;19;161782;-16
2022/01/26 10:59:16;;;;;;;16.85;14.13;;;;;;;;;;7331371;19;162399;-15
2022/01/26 11:01:47;;;;;;;13.98;12.50;;;;;;;;;;7331106;19;153931;-16
2022/01/26 11:04:18;;;;;;;14.25;12.75;;;;;;;;;;7331228;19;153717;-14
2022/01/26 11:06:55;;;;;;;15.70;13.48;;;;;;;;;;7328792;19;161978;-15
2022/01/26 11:09:31;;;;;;;14.93;12.95;;;;;;;;;;7332313;19;162551;-15
2022/01/26 11:12:07;;;;;;;16.02;13.68;;;;;;;;;;7334295;19;154019;-16
2022/01/26 11:14:43;;;;;;;15.55;12.63;;;;;;;;;;7333140;19;153688;-14
2022/01/26 11:17:27;;;;;;;14.68;12.48;;;;;;;;;;7330792;19;162081;-15
2022/01/26 11:19:59;;;;;;;14.95;13.38;;;;;;;;;;7329732;19;162410;-15
2022/01/26 11:22:32;;;;;;;14.20;12.67;;;;;;;;;;7329893;19;154161;-16
2022/01/26 11:25:11;;;;;;;15.70;12.80;;;;;;;;;;7330821;19;153315;-15
2022/01/26 11:27:45;;;;;;;14.98;13.35;;;;;;;;;;7331410;19;161982;-14
2022/01/26 11:30:19;;;;;;;13.65;12.00;;;;;;;;;;7329282;19;162498;-15
2022/01/26 11:32:59;;;;;;;13.43;12.02;;;;;;;;;;7329934;19;154124;-14
2022/01/26 11:35:35;;;;;;;13.40;11.45;;;;;;;;;;7329564;19;153678;-15
2022/01/26 11:38:15;;;;;;;13.68;11.82;;;;;;;;;;7329954;19;161876;-14
2022/01/26 11:46:39;;;;;;;12.75;11.45;;;;;;;;;;7327887;19;153727;-15
2022/01/26 11:49:13;;;;;;;12.98;11.57;;;;;;;;;;7329819;19;162097;-14
2022/01/26 11:51:45;;;;;;;12.90;11.55;;;;;;;;;;7329850;19;162593;-15
2022/01/26 11:54:18;;;;;;;12.85;11.55;;;;;;;;;;7330192;19;153826;-15
2022/01/26 11:56:57;;;;;;;;;;;;;;;;;;7329700;19;153669;-14
2022/01/26 11:59:33;;;;;;;13.30;11.43;;;;;;;;;;7326760;19;162358;-15
2022/01/26 12:02:18;;;;;;;13.13;11.73;;;;;;;;;;7328702;19;162645;-14
2022/01/26 12:04:59;;;;;;;12.32;10.95;;;;;;;;;;7333601;19;154183;-14
2022/01/26 12:07:31;;;;;;;13.57;10.68;;;;;;;;;;7328041;19;153323;-14
2022/01/26 12:10:04;;;;;;;12.60;11.27;;;;;;;;;;7328965;19;161801;-14
2022/01/26 12:12:36;;;;;;;12.77;10.10;;;;;;;;;;7331410;19;162557;-14
2022/01/26 12:15:16;;;;;;;12.10;10.40;;;;;;;;;;7329334;19;153664;-14
2022/01/26 12:18:00;;;;;;;13.27;11.70;;;;;;;;;;7329274;19;153699;-14
2022/01/26 12:37:08;;;;;;;12.82;10.15;;;;;;;;;;7325404;19;154083;-14
2022/01/26 12:42:57;;;;;;;11.55;10.20;;;;;;;;;;7329389;19;161535;-15
2022/01/26 12:45:37;;;;;;;11.52;10.25;;;;;;;;;;7327878;19;162545;-16
2022/01/26 12:48:13;;;;;;;12.40;9.57;;;;;;;;;;7325679;19;153804;-14
2022/01/26 12:50:45;;;;;;;11.40;9.98;;;;;;;;;;7330874;19;153550;-15
2022/01/26 12:53:16;;;;;;;10.95;9.65;;;;;;;;;;7324072;19;161583;-15
2022/01/26 12:55:57;;;;;;;6.93;6.07;;;;;;;;;;7329073;19;162358;-15
2022/01/26 12:58:31;;;;;;;9.02;5.70;;;;;;;;;;7329436;19;153978;-15
2022/01/26 13:01:06;;;;;;;7.00;5.32;;;;;;;;;;7329555;19;153542;-14
2022/01/26 13:03:42;;;;;;;8.70;5.70;;;;;;;;;;7329996;19;161870;-15
2022/01/26 13:06:16;;;;;;;6.43;5.50;;;;;;;;;;7329508;19;162669;-14
2022/01/26 13:08:49;;;;;;;8.80;5.65;;;;;;;;;;7326906;19;153973;-15
2022/01/26 13:11:28;;;;;;;7.30;6.10;;;;;;;;;;7331151;19;153516;-16
2022/01/26 13:14:12;;;;;;;6.45;5.82;;;;;;;;;;7337346;19;161965;-18
2022/01/26 13:16:47;;;;;;;6.80;5.55;;;;;;;;;;7333935;19;162445;-19
2022/01/26 13:19:44;;;;;;;6.15;5.55;;;;;;;;;;7336610;19;153995;-14
2022/01/26 13:22:41;;;;;;;6.47;5.88;;;;;;;;;;7334402;19;153830;-14
2022/01/26 13:25:25;;;;;;;6.28;5.70;;;;;;;;;;7333711;19;161944;-15
2022/01/26 13:28:14;;;;;;;6.68;5.15;;;;;;;;;;7333208;19;162481;-15
2022/01/26 13:31:07;;;;;;;7.22;5.47;;;;;;;;;;7333898;19;153970;-15
2022/01/26 13:36:58;;;;;;;5.88;5.10;;;;;;;;;;7334159;19;161866;-16
2022/01/26 13:39:49;;;;;;;5.95;5.35;;;;;;;;;;7338167;19;162535;-18
2022/01/26 13:50:38;;;;;;;5.13;4.63;;;;;;;;;;7333164;19;162400;-16
2022/01/26 13:53:16;;;;;;;5.28;4.72;;;;;;;;;;7335350;19;153994;-14
2022/01/26 13:56:01;;;;;;;5.25;4.78;;;;;;;;;;7330523;19;153734;-14
2022/01/26 14:01:20;;;;;;;5.72;5.15;;;;;;;;;;7333249;19;162858;-16
2022/01/26 14:03:55;;;;;;;6.15;4.85;;;;;;;;;;7335776;19;153952;-16
2022/01/26 14:06:26;;;;;;;5.95;4.10;;;;;;;;;;7337503;19;153539;-14
2022/01/26 14:09:01;;;;;;;4.75;4.35;;;;;;;;;;7332934;19;161992;-16
2022/01/26 14:11:33;;;;;;;5.82;4.68;;;;;;;;;;7335979;19;162705;-15
2022/01/26 14:14:05;;;;;;;4.50;4.10;;;;;;;;;;7337023;19;154162;-15
2022/01/26 14:16:44;;;;;;;5.22;4.60;;;;;;;;;;7336110;19;153384;-15
2022/01/26 14:19:27;;;;;;;4.32;3.92;;;;;;;;;;7335685;19;162048;-15
2022/01/26 14:22:33;;;;;;;4.70;4.18;;;;;;;;;;7337520;19;162408;-15
2022/01/26 14:25:16;;;;;;;4.22;3.85;;;;;;;;;;7332572;19;154044;-15
2022/01/26 14:27:50;;;;;;;4.53;4.13;;;;;;;;;;7334770;19;153611;-15
2022/01/26 14:30:38;;;;;;;4.95;4.25;;;;;;;;;;7334304;19;161872;-15
2022/01/26 14:55:58;;;;;;;4.32;3.92;;;;;;;;;;7330106;19;162640;-15
2022/01/26 15:34:41;;;;;;;3.75;3.28;;;;;;;;;;7329156;19;153440;-14
2022/01/26 15:40:20;;;;;;;4.18;3.67;;;;;;;;;;7329774;19;162410;-14
2022/01/26 15:48:49;;;;;;;3.20;2.90;;;;;;;;;;7329500;19;161819;-13
2022/01/26 15:51:46;;;;;;;4.20;2.88;;;;;;;;;;7329373;19;162607;-14
2022/01/26 16:08:27;;;;;;;3.10;2.72;;;;;;;;;;7328681;19;154046;-18
2022/01/26 16:16:38;;;;;;;2.72;2.53;;;;;;;;;;7328779;19;154064;-15
2022/01/26 16:36:02;;;;;;;2.50;2.30;;;;;;;;;;7325468;19;162509;-15
2022/01/26 16:38:49;;;;;;;5.00;2.90;;;;;;;;;;7328200;19;154144;-15
2022/01/26 18:04:58;;;;;;;2.58;2.38;;;;;;;;;;7332666;19;162471;-14
2022/01/26 18:13:24;;;;;;;2.53;2.33;;;;;;;;;;7332794;19;161795;-15
2022/01/26 18:16:01;;;;;;;2.25;2.05;;;;;;;;;;7332719;19;162381;-16
2022/01/26 18:26:50;;;;;;;2.58;2.38;;;;;;;;;;7332830;19;162389;-16
2022/01/26 18:32:20;;;;;;;2.65;2.30;;;;;;;;;;7330973;19;153522;-16
2022/01/26 18:40:44;;;;;;;2.22;2.00;;;;;;;;;;7332542;19;153984;-15
2022/01/26 18:51:37;;;;;;;2.40;2.22;;;;;;;;;;7330501;19;153975;-16
2022/01/26 18:54:10;;;;;;;2.67;2.45;;;;;;;;;;7332141;19;153563;-19
2022/01/26 18:56:42;;;;;;;3.85;2.08;;;;;;;;;;7331566;19;161757;-20
2022/01/26 18:59:14;;;;;;;2.47;2.28;;;;;;;;;;7331495;19;162402;-15
2022/01/26 19:01:45;;;;;;;2.10;2.00;;;;;;;;;;7332069;19;154036;-17
2022/01/26 19:04:41;;;;;;;2.10;2.00;;;;;;;;;;7330464;19;153717;-15
2022/01/26 19:07:15;;;;;;;2.40;2.20;;;;;;;;;;7331150;19;162048;-15
2022/01/26 19:09:50;;;;;;;3.03;2.72;;;;;;;;;;7329065;19;162473;-15
2022/01/26 19:12:24;;;;;;;2.40;2.20;;;;;;;;;;7329454;19;153968;-16
2022/01/26 19:15:01;;;;;;;3.00;2.70;;;;;;;;;;7331878;19;153815;-14
2022/01/26 19:17:37;;;;;;;2.67;2.45;;;;;;;;;;7330304;19;161906;-15
2022/01/26 19:20:21;;;;;;;2.40;2.30;;;;;;;;;;7331072;19;162479;-15
2022/01/26 19:23:08;;;;;;;2.60;2.40;;;;;;;;;;7331088;19;154245;-15
2022/01/26 19:25:44;;;;;;;2.63;2.42;;;;;;;;;;7330310;19;153797;-14
2022/01/26 19:28:20;;;;;;;2.90;2.70;;;;;;;;;;7330305;19;161775;-14
2022/01/26 19:45:05;;;;;;;5.10;4.60;;;;;;;;;;7330579;19;154076;-14
2022/01/26 19:52:57;;;;;;;4.63;3.78;;;;;;;;;;7327403;19;162593;-14
2022/01/26 19:55:34;;;;;;;4.22;3.42;;;;;;;;;;7330251;19;154099;-15
2022/01/26 19:58:07;;;;;;;4.50;3.60;;;;;;;;;;7330213;19;153680;-14
2022/01/26 20:00:43;;;;;;;4.63;3.30;;;;;;;;;;7329840;19;161802;-15
2022/01/26 20:03:16;;;;;;;6.38;3.88;;;;;;;;;;7329885;19;162408;-14
2022/01/26 20:05:52;;;;;;;4.60;4.15;;;;;;;;;;7330336;19;154063;-15
2022/01/26 20:08:31;;;;;;;8.32;4.35;;;;;;;;;;7330129;19;153487;-15
2022/01/26 20:11:09;;;;;;;10.20;6.63;;;;;;;;;;7329241;19;161881;-14
2022/01/26 20:13:42;;;;;;;22.13;14.25;;;;;;;;;;7329137;19;162410;-14
2022/01/26 20:16:14;;;;;;;83.10;51.33;;;;;;;;;;7329460;19;154096;-14
2022/01/26 20:18:45;;;;;;;103.82;63.85;;;;;;;;;;7329273;19;153746;-14
2022/01/26 20:21:17;;;;;;;124.43;78.35;;;;;;;;;;7328175;19;162099;-15
2022/01/26 20:23:48;;;;;;;141.15;85.53;;;;;;;;;;7328309;19;162579;-14
2022/01/26 20:26:25;;;;;;;143.25;91.05;;;;;;;;;;7328696;19;154728;-15
2022/01/26 20:28:56;;;;;;;121.07;73.82;;;;;;;;;;7330395;19;153784;-14
2022/01/26 20:31:27;;;;;;;124.28;80.18;;;;;;;;;;7330729;19;161729;-15
2022/01/26 20:33:59;;;;;;;118.63;75.82;;;;;;;;;;7329298;19;162557;-14
2022/01/26 20:36:31;;;;;;;123.20;78.75;;;;;;;;;;7330089;19;154100;-15
2022/01/26 20:39:07;;;;;;;120.22;75.45;;;;;;;;;;7331425;19;153701;-14
2022/01/26 20:41:41;;;;;;;110.93;72.53;;;;;;;;;;7330446;19;161611;-15
2022/01/26 20:44:13;;;;;;;103.93;68.47;;;;;;;;;;7330241;19;162702;-14
2022/01/26 20:46:44;;;;;;;109.07;66.55;;;;;;;;;;7328993;19;154733;-14
2022/01/26 20:49:15;;;;;;;102.07;62.97;;;;;;;;;;7328905;19;153523;-40
2022/01/26 20:51:47;;;;;;;103.65;66.53;;;;;;;;;;7330963;19;161860;-14
2022/01/26 20:54:18;;;;;;;96.68;61.63;;;;;;;;;;7328238;19;162391;-14
2022/01/26 20:56:52;;;;;;;97.32;63.78;;;;;;;;;;7330906;19;154255;-15
2022/01/26 20:59:24;;;;;;;94.25;60.97;;;;;;;;;;7330161;19;153728;-15
2022/01/26 21:01:55;;;;;;;94.45;62.75;;;;;;;;;;7331116;19;161944;-16
2022/01/26 21:04:27;;;;;;;94.60;60.65;;;;;;;;;;7331106;19;162499;-16
2022/01/26 21:06:58;;;;;;;92.75;60.42;;;;;;;;;;7327986;19;154166;-14
2022/01/26 21:09:29;;;;;;;92.10;60.33;;;;;;;;;;7328244;19;153720;-15
2022/01/26 21:12:03;;;;;;;86.30;59.75;;;;;;;;;;7327105;19;161702;-15
2022/01/26 21:14:34;;;;;;;84.05;57.90;;;;;;;;;;7327889;19;162353;-15
2022/01/26 21:17:06;;;;;;;84.80;58.28;;;;;;;;;;7327975;19;154297;-15
2022/01/26 21:19:38;;;;;;;80.75;58.08;;;;;;;;;;7327645;19;153644;-15
2022/01/26 21:22:09;;;;;;;84.68;56.60;;;;;;;;;;7327148;19;161954;-15
2022/01/26 21:24:41;;;;;;;77.82;55.00;;;;;;;;;;7327220;19;162509;-15
2022/01/26 21:27:16;;;;;;;79.78;54.22;;;;;;;;;;7327702;19;154054;-16
2022/01/26 21:29:47;;;;;;;76.93;54.85;;;;;;;;;;7328660;19;153594;-16
2022/01/26 21:32:19;;;;;;;77.13;52.72;;;;;;;;;;7329326;19;161884;-15
2022/01/26 21:34:50;;;;;;;75.88;49.90;;;;;;;;;;7333682;19;162507;-16
2022/01/26 21:37:21;;;;;;;73.85;48.80;;;;;;;;;;7335267;19;153975;-15
2022/01/26 21:39:55;;;;;;;70.93;48.45;;;;;;;;;;7337266;19;153596;-15
2022/01/26 21:42:29;;;;;;;68.90;46.78;;;;;;;;;;7336893;19;162087;-16
2022/01/26 21:45:00;;;;;;;72.47;48.08;;;;;;;;;;7336773;19;162347;-14
2022/01/26 21:47:32;;;;;;;65.03;46.07;;;;;;;;;;7336901;19;154084;-15
2022/01/26 21:50:04;;;;;;;66.35;45.63;;;;;;;;;;7337341;19;153840;-14
2022/01/26 21:52:37;;;;;;;70.28;46.33;;;;;;;;;;7335524;19;162081;-16
2022/01/26 21:55:09;;;;;;;68.07;46.17;;;;;;;;;;7335343;19;162603;-16
2022/01/26 21:57:46;;;;;;;71.82;49.13;;;;;;;;;;7336843;19;154237;-15
2022/01/26 22:00:19;;;;;;;64.72;44.60;;;;;;;;;;7334998;19;153575;-15
2022/01/26 22:02:53;;;;;;;67.15;46.13;;;;;;;;;;7336886;19;161877;-15
2022/01/26 22:05:26;;;;;;;67.80;47.53;;;;;;;;;;7336395;19;162249;-15
2022/01/26 22:07:57;;;;;;;66.28;45.08;;;;;;;;;;7335966;19;153967;-15
2022/01/26 22:10:29;;;;;;;66.80;46.53;;;;;;;;;;7335760;19;153682;-15
2022/01/26 22:13:03;;;;;;;62.30;43.28;;;;;;;;;;7335260;19;162003;-14
2022/01/26 22:15:34;;;;;;;63.78;42.83;;;;;;;;;;7335731;19;162972;-14
2022/01/26 22:18:06;;;;;;;61.35;42.78;;;;;;;;;;7336943;19;153994;-14
2022/01/26 22:20:38;;;;;;;60.55;43.08;;;;;;;;;;7336204;19;153867;-15
2022/01/26 22:23:11;;;;;;;61.30;42.92;;;;;;;;;;7335686;19;161879;-14
2022/01/26 22:25:44;;;;;;;62.33;44.38;;;;;;;;;;7335977;19;162495;-16
2022/01/26 22:28:24;;;;;;;62.22;40.47;;;;;;;;;;7335971;19;154040;-15
2022/01/26 22:30:55;;;;;;;55.72;40.22;;;;;;;;;;7335540;19;153642;-15
2022/01/26 22:33:27;;;;;;;57.30;39.60;;;;;;;;;;7333949;19;161803;-14
2022/01/26 22:35:58;;;;;;;60.13;41.28;;;;;;;;;;7334041;19;162471;-14
2022/01/26 22:38:29;;;;;;;59.78;41.38;;;;;;;;;;7335216;19;154108;-14
2022/01/26 22:41:01;;;;;;;56.35;38.33;;;;;;;;;;7335280;19;153620;-14
2022/01/26 22:43:34;;;;;;;63.13;39.67;;;;;;;;;;7334679;19;161864;-14
2022/01/26 22:46:06;;;;;;;60.85;40.05;;;;;;;;;;7333325;19;162732;-13
2022/01/26 22:48:37;;;;;;;51.13;37.05;;;;;;;;;;7335414;19;154318;-14
2022/01/26 22:51:10;;;;;;;58.00;40.25;;;;;;;;;;7335586;19;153574;-15
2022/01/26 22:53:57;;;;;;;54.78;37.85;;;;;;;;;;7333599;19;162086;-13
2022/01/26 22:56:29;;;;;;;57.33;39.20;;;;;;;;;;7334547;19;162400;-15
2022/01/26 22:59:03;;;;;;;55.72;39.67;;;;;;;;;;7333254;19;154351;-13
2022/01/26 23:04:38;;;;;;;53.53;37.28;;;;;;;;;;7327700;19;161957;-15
2022/01/26 23:07:12;;;;;;;51.83;36.58;;;;;;;;;;7330173;19;162681;-15
2022/01/26 23:09:43;;;;;;;55.95;39.22;;;;;;;;;;7332863;19;153986;-15
2022/01/26 23:12:15;;;;;;;49.00;35.42;;;;;;;;;;7331456;19;153826;-14
2022/01/26 23:14:49;;;;;;;51.95;37.70;;;;;;;;;;7330272;19;161713;-14
2022/01/26 23:17:20;;;;;;;47.65;33.88;;;;;;;;;;7330836;19;162216;-15
2022/01/26 23:19:58;;;;;;;54.40;37.15;;;;;;;;;;7331309;19;154040;-15
2022/01/26 23:22:30;;;;;;;49.92;37.17;;;;;;;;;;7330918;19;153579;-15
2022/01/26 23:25:10;;;;;;;51.65;36.03;;;;;;;;;;7330570;19;161761;-14
2022/01/26 23:27:53;;;;;;;53.75;36.58;;;;;;;;;;7330661;19;162482;-15
2022/01/26 23:30:43;;;;;;;46.22;34.03;;;;;;;;;;7333430;19;153961;-13
2022/01/26 23:36:12;;;;;;;49.10;35.03;;;;;;;;;;7328903;19;161791;-13
2022/01/26 23:39:17;;;;;;;48.20;33.60;;;;;;;;;;7329315;19;162641;-14
2022/01/26 23:57:17;;;;;;;47.67;34.45;;;;;;;;;;7329370;19;153788;-14
